Terminal Aerodrome Forecast
Issued by NWS

Home | Current Version | Previous Version | Text Only | Print | Product List | Glossary On
Versions: 1 2 3 4 5 6 7 8 9 10 11 12 13 14 15 16 17
000
FTUS45 KLKN 190500
TAFELY
TAF
KELY 190520Z 1906/2006 17006KT P6SM VCSH BKN080
     FM191900 23011KT P6SM VCTS SCT060CB BKN080
     FM200200 VRB06KT P6SM VCSH SCT060 BKN090=

USA.gov is the U.S. government's official web portal to all federal, state and local government web resources and services.